<?xml version="1.0" encoding="UTF-8" standalone="no" ?>
<gpx xmlns="http://www.topografix.com/GPX/1/1" xmlns:xsi="http://www.w3.org/2001/XMLSchema-instance" xsi:schemaLocation="http://www.topografix.com/GPX/1/1 http://www.topografix.com/GPX/1/1/gpx.xsd" version="1.1" creator="VisuGPX - https://www.visugpx.com">
  <metadata>
    <name>De Meillerie à Salvigny</name>
    <desc><![CDATA[Randonnée en Haute-Savoie]]></desc>
  </metadata>
  <trk>
    <name><![CDATA[ACTIVE LOG: 30 JUL 2015 10:45]]></name>
    <trkseg>
      <trkpt lat="46.09881" lon="6.84982">
        <ele>998.95</ele>
        <time>2015-07-30T08:47:39Z</time>
      </trkpt>
      <trkpt lat="46.09931" lon="6.85028">
        <ele>1001.35</ele>
        <time>2015-07-30T08:48:44Z</time>
      </trkpt>
      <trkpt lat="46.09983" lon="6.85053">
        <ele>1004.23</ele>
        <time>2015-07-30T08:49:49Z</time>
      </trkpt>
      <trkpt lat="46.10038" lon="6.85075">
        <ele>1002.79</ele>
        <time>2015-07-30T08:50:54Z</time>
      </trkpt>
      <trkpt lat="46.10059" lon="6.85121">
        <ele>1004.23</ele>
        <time>2015-07-30T08:51:59Z</time>
      </trkpt>
      <trkpt lat="46.10095" lon="6.85161">
        <ele>1004.23</ele>
        <time>2015-07-30T08:53:04Z</time>
      </trkpt>
      <trkpt lat="46.10144" lon="6.85199">
        <ele>1004.23</ele>
        <time>2015-07-30T08:54:09Z</time>
      </trkpt>
      <trkpt lat="46.10197" lon="6.85198">
        <ele>1008.56</ele>
        <time>2015-07-30T08:55:14Z</time>
      </trkpt>
      <trkpt lat="46.10222" lon="6.8519">
        <ele>1005.68</ele>
        <time>2015-07-30T08:56:19Z</time>
      </trkpt>
      <trkpt lat="46.10259" lon="6.85199">
        <ele>1004.23</ele>
        <time>2015-07-30T08:57:24Z</time>
      </trkpt>
      <trkpt lat="46.1028" lon="6.85166">
        <ele>1005.2</ele>
        <time>2015-07-30T08:58:29Z</time>
      </trkpt>
      <trkpt lat="46.10306" lon="6.85127">
        <ele>1008.08</ele>
        <time>2015-07-30T08:59:34Z</time>
      </trkpt>
      <trkpt lat="46.10306" lon="6.85127">
        <ele>1005.68</ele>
        <time>2015-07-30T09:00:39Z</time>
      </trkpt>
      <trkpt lat="46.1029" lon="6.85179">
        <ele>1000.87</ele>
        <time>2015-07-30T09:01:44Z</time>
      </trkpt>
      <trkpt lat="46.10291" lon="6.85245">
        <ele>997.99</ele>
        <time>2015-07-30T09:02:49Z</time>
      </trkpt>
      <trkpt lat="46.10309" lon="6.85329">
        <ele>996.06</ele>
        <time>2015-07-30T09:03:54Z</time>
      </trkpt>
      <trkpt lat="46.10278" lon="6.85355">
        <ele>995.1</ele>
        <time>2015-07-30T09:04:59Z</time>
      </trkpt>
      <trkpt lat="46.10302" lon="6.85353">
        <ele>995.1</ele>
        <time>2015-07-30T09:06:04Z</time>
      </trkpt>
      <trkpt lat="46.10332" lon="6.8538">
        <ele>997.51</ele>
        <time>2015-07-30T09:07:09Z</time>
      </trkpt>
      <trkpt lat="46.10353" lon="6.85428">
        <ele>999.43</ele>
        <time>2015-07-30T09:08:14Z</time>
      </trkpt>
      <trkpt lat="46.10399" lon="6.85487">
        <ele>1004.23</ele>
        <time>2015-07-30T09:09:19Z</time>
      </trkpt>
      <trkpt lat="46.10446" lon="6.85551">
        <ele>1006.16</ele>
        <time>2015-07-30T09:10:24Z</time>
      </trkpt>
      <trkpt lat="46.10486" lon="6.8562">
        <ele>1012.89</ele>
        <time>2015-07-30T09:11:29Z</time>
      </trkpt>
      <trkpt lat="46.10517" lon="6.85679">
        <ele>1013.85</ele>
        <time>2015-07-30T09:12:34Z</time>
      </trkpt>
      <trkpt lat="46.10516" lon="6.8572">
        <ele>1015.29</ele>
        <time>2015-07-30T09:13:39Z</time>
      </trkpt>
      <trkpt lat="46.10514" lon="6.85764">
        <ele>1020.58</ele>
        <time>2015-07-30T09:14:44Z</time>
      </trkpt>
      <trkpt lat="46.10513" lon="6.85773">
        <ele>1058.55</ele>
        <time>2015-07-30T09:15:49Z</time>
      </trkpt>
      <trkpt lat="46.10513" lon="6.85775">
        <ele>1059.03</ele>
        <time>2015-07-30T09:16:54Z</time>
      </trkpt>
      <trkpt lat="46.10501" lon="6.85764">
        <ele>1058.07</ele>
        <time>2015-07-30T09:17:59Z</time>
      </trkpt>
      <trkpt lat="46.10487" lon="6.85766">
        <ele>1059.03</ele>
        <time>2015-07-30T09:19:04Z</time>
      </trkpt>
      <trkpt lat="46.10491" lon="6.85764">
        <ele>1059.03</ele>
        <time>2015-07-30T09:20:09Z</time>
      </trkpt>
      <trkpt lat="46.1045" lon="6.85737">
        <ele>1053.74</ele>
        <time>2015-07-30T09:21:14Z</time>
      </trkpt>
      <trkpt lat="46.10394" lon="6.85735">
        <ele>1049.42</ele>
        <time>2015-07-30T09:22:19Z</time>
      </trkpt>
      <trkpt lat="46.10342" lon="6.85751">
        <ele>1047.97</ele>
        <time>2015-07-30T09:23:24Z</time>
      </trkpt>
      <trkpt lat="46.10282" lon="6.85725">
        <ele>1044.13</ele>
        <time>2015-07-30T09:24:29Z</time>
      </trkpt>
      <trkpt lat="46.10245" lon="6.85664">
        <ele>1044.61</ele>
        <time>2015-07-30T09:25:34Z</time>
      </trkpt>
      <trkpt lat="46.10227" lon="6.85668">
        <ele>1044.61</ele>
        <time>2015-07-30T09:26:39Z</time>
      </trkpt>
      <trkpt lat="46.1023" lon="6.85648">
        <ele>1044.61</ele>
        <time>2015-07-30T09:27:44Z</time>
      </trkpt>
      <trkpt lat="46.1024" lon="6.85606">
        <ele>1043.65</ele>
        <time>2015-07-30T09:28:49Z</time>
      </trkpt>
      <trkpt lat="46.10264" lon="6.85586">
        <ele>1042.69</ele>
        <time>2015-07-30T09:29:54Z</time>
      </trkpt>
      <trkpt lat="46.10242" lon="6.85605">
        <ele>1041.25</ele>
        <time>2015-07-30T09:30:59Z</time>
      </trkpt>
      <trkpt lat="46.10228" lon="6.85568">
        <ele>1041.25</ele>
        <time>2015-07-30T09:32:04Z</time>
      </trkpt>
      <trkpt lat="46.10235" lon="6.8551">
        <ele>1041.73</ele>
        <time>2015-07-30T09:33:09Z</time>
      </trkpt>
      <trkpt lat="46.10163" lon="6.85453">
        <ele>1041.73</ele>
        <time>2015-07-30T09:34:14Z</time>
      </trkpt>
      <trkpt lat="46.10137" lon="6.85424">
        <ele>1039.8</ele>
        <time>2015-07-30T09:35:19Z</time>
      </trkpt>
      <trkpt lat="46.10132" lon="6.85418">
        <ele>1040.28</ele>
        <time>2015-07-30T09:36:24Z</time>
      </trkpt>
      <trkpt lat="46.10134" lon="6.85419">
        <ele>1040.28</ele>
        <time>2015-07-30T09:37:29Z</time>
      </trkpt>
      <trkpt lat="46.10107" lon="6.85395">
        <ele>1037.88</ele>
        <time>2015-07-30T09:38:34Z</time>
      </trkpt>
      <trkpt lat="46.10083" lon="6.85388">
        <ele>1037.4</ele>
        <time>2015-07-30T09:39:24Z</time>
      </trkpt>
    </trkseg>
  </trk>
</gpx>